sensor_id;sensor_type;location;lat;lon;timestamp;pressure;altitude;pressure_sealevel;temperature;humidity
29569;BME280;16501;51.462;14.346;2024-01-30T00:01:56;101653.69;;;3.30;91.80
29569;BME280;16501;51.462;14.346;2024-01-30T00:04:22;101696.63;;;3.57;91.71
29569;BME280;16501;51.462;14.346;2024-01-30T00:06:47;101699.00;;;3.55;91.81
29569;BME280;16501;51.462;14.346;2024-01-30T00:09:12;101691.84;;;3.54;91.58
29569;BME280;16501;51.462;14.346;2024-01-30T00:11:38;101685.88;;;3.49;92.24
29569;BME280;16501;51.462;14.346;2024-01-30T00:14:04;101676.69;;;3.37;93.33
29569;BME280;16501;51.462;14.346;2024-01-30T00:16:29;101675.91;;;3.33;92.81
29569;BME280;16501;51.462;14.346;2024-01-30T00:18:55;101688.19;;;3.39;92.50
29569;BME280;16501;51.462;14.346;2024-01-30T00:21:21;101667.22;;;3.38;92.30
29569;BME280;16501;51.462;14.346;2024-01-30T00:23:46;101682.28;;;3.48;92.42
29569;BME280;16501;51.462;14.346;2024-01-30T00:26:12;101681.88;;;3.46;92.71
29569;BME280;16501;51.462;14.346;2024-01-30T00:28:43;101683.06;;;3.42;93.24
29569;BME280;16501;51.462;14.346;2024-01-30T00:31:09;101673.91;;;3.30;93.56
29569;BME280;16501;51.462;14.346;2024-01-30T00:33:39;101663.97;;;3.26;93.51
29569;BME280;16501;51.462;14.346;2024-01-30T00:36:05;101679.47;;;3.34;93.67
29569;BME280;16501;51.462;14.346;2024-01-30T00:38:31;101657.22;;;3.23;93.28
29569;BME280;16501;51.462;14.346;2024-01-30T00:40:56;101664.75;;;3.23;93.78
29569;BME280;16501;51.462;14.346;2024-01-30T00:43:22;101680.25;;;3.34;93.83
29569;BME280;16501;51.462;14.346;2024-01-30T00:45:47;101671.47;;;3.21;94.92
29569;BME280;16501;51.462;14.346;2024-01-30T00:48:12;101678.66;;;3.30;94.77
29569;BME280;16501;51.462;14.346;2024-01-30T00:50:37;101648.88;;;3.12;94.86
29569;BME280;16501;51.462;14.346;2024-01-30T00:53:03;101675.41;;;3.17;94.52
29569;BME280;16501;51.462;14.346;2024-01-30T00:55:28;101648.84;;;3.09;94.41
29569;BME280;16501;51.462;14.346;2024-01-30T00:57:53;101652.41;;;3.09;94.94
29569;BME280;16501;51.462;14.346;2024-01-30T01:00:19;101666.25;;;3.09;94.93
29569;BME280;16501;51.462;14.346;2024-01-30T01:02:46;101665.50;;;3.12;95.41
29569;BME280;16501;51.462;14.346;2024-01-30T01:05:11;101655.94;;;3.06;95.52
29569;BME280;16501;51.462;14.346;2024-01-30T01:07:36;101671.84;;;3.16;95.75
29569;BME280;16501;51.462;14.346;2024-01-30T01:10:01;101648.78;;;2.98;96.20
29569;BME280;16501;51.462;14.346;2024-01-30T01:12:27;101652.72;;;2.97;96.11
29569;BME280;16501;51.462;14.346;2024-01-30T01:14:52;101671.81;;;3.09;96.33
29569;BME280;16501;51.462;14.346;2024-01-30T01:17:18;101670.19;;;3.08;96.33
29569;BME280;16501;51.462;14.346;2024-01-30T01:19:46;101666.25;;;3.06;96.23
29569;BME280;16501;51.462;14.346;2024-01-30T01:22:11;101671.81;;;3.09;96.90
29569;BME280;16501;51.462;14.346;2024-01-30T01:24:36;101665.47;;;3.05;97.51
29569;BME280;16501;51.462;14.346;2024-01-30T01:27:02;101632.84;;;2.80;97.65
29569;BME280;16501;51.462;14.346;2024-01-30T01:29:27;101662.69;;;3.05;97.77
29569;BME280;16501;51.462;14.346;2024-01-30T01:31:56;101662.28;;;3.07;97.59
29569;BME280;16501;51.462;14.346;2024-01-30T01:34:21;101668.97;;;2.98;97.87
29569;BME280;16501;51.462;14.346;2024-01-30T01:36:46;101639.19;;;2.81;98.45
29569;BME280;16501;51.462;14.346;2024-01-30T01:39:12;101646.75;;;2.88;97.83
29569;BME280;16501;51.462;14.346;2024-01-30T01:41:37;101637.63;;;2.87;98.21
29569;BME280;16501;51.462;14.346;2024-01-30T01:44:02;101654.69;;;2.93;97.75
29569;BME280;16501;51.462;14.346;2024-01-30T01:46:30;101641.22;;;2.91;97.29
29569;BME280;16501;51.462;14.346;2024-01-30T01:48:56;101651.56;;;2.98;97.96
29569;BME280;16501;51.462;14.346;2024-01-30T01:51:23;101632.00;;;2.76;98.06
29569;BME280;16501;51.462;14.346;2024-01-30T01:53:49;101632.06;;;2.83;98.23
29569;BME280;16501;51.462;14.346;2024-01-30T01:56:15;101645.56;;;2.92;98.07
29569;BME280;16501;51.462;14.346;2024-01-30T01:58:41;101656.69;;;2.99;98.02
29569;BME280;16501;51.462;14.346;2024-01-30T02:01:07;101629.72;;;2.89;97.89
29569;BME280;16501;51.462;14.346;2024-01-30T02:03:34;101626.50;;;2.80;98.24
29569;BME280;16501;51.462;14.346;2024-01-30T02:05:59;101648.34;;;2.92;97.84
29569;BME280;16501;51.462;14.346;2024-01-30T02:08:24;101640.84;;;2.93;97.53
29569;BME280;16501;51.462;14.346;2024-01-30T02:10:50;101643.25;;;2.98;98.24
29569;BME280;16501;51.462;14.346;2024-01-30T02:13:15;101649.16;;;2.93;98.28
29569;BME280;16501;51.462;14.346;2024-01-30T02:15:40;101627.66;;;2.72;99.15
29569;BME280;16501;51.462;14.346;2024-01-30T02:18:05;101654.25;;;2.91;98.78
29569;BME280;16501;51.462;14.346;2024-01-30T02:20:31;101612.97;;;2.71;98.47
29569;BME280;16501;51.462;14.346;2024-01-30T02:22:59;101620.91;;;2.73;98.40
29569;BME280;16501;51.462;14.346;2024-01-30T02:25:40;101616.97;;;2.74;99.58
29569;BME280;16501;51.462;14.346;2024-01-30T02:28:12;101629.69;;;2.86;99.23
29569;BME280;16501;51.462;14.346;2024-01-30T02:30:38;101637.59;;;2.83;99.75
29569;BME280;16501;51.462;14.346;2024-01-30T02:33:04;101639.19;;;2.85;100.00
29569;BME280;16501;51.462;14.346;2024-01-30T02:35:29;101624.06;;;2.71;100.00
29569;BME280;16501;51.462;14.346;2024-01-30T02:37:54;101619.25;;;2.64;100.00
29569;BME280;16501;51.462;14.346;2024-01-30T02:40:20;101637.97;;;2.78;100.00
29569;BME280;16501;51.462;14.346;2024-01-30T02:42:45;101601.84;;;2.60;100.00
29569;BME280;16501;51.462;14.346;2024-01-30T02:45:11;101620.47;;;2.67;100.00
29569;BME280;16501;51.462;14.346;2024-01-30T02:47:36;101603.00;;;2.59;100.00
29569;BME280;16501;51.462;14.346;2024-01-30T02:50:02;101637.97;;;2.78;100.00
29569;BME280;16501;51.462;14.346;2024-01-30T02:52:27;101620.47;;;2.67;100.00
29569;BME280;16501;51.462;14.346;2024-01-30T02:54:52;101604.59;;;2.60;100.00
29569;BME280;16501;51.462;14.346;2024-01-30T02:57:17;101621.28;;;2.68;100.00
29569;BME280;16501;51.462;14.346;2024-01-30T02:59:42;101594.66;;;2.52;100.00
29569;BME280;16501;51.462;14.346;2024-01-30T03:02:08;101621.28;;;2.68;100.00
29569;BME280;16501;51.462;14.346;2024-01-30T03:04:33;101632.75;;;2.70;100.00
29569;BME280;16501;51.462;14.346;2024-01-30T03:06:58;101616.84;;;2.59;100.00
29569;BME280;16501;51.462;14.346;2024-01-30T03:09:24;101634.72;;;2.69;100.00
29569;BME280;16501;51.462;14.346;2024-01-30T03:11:49;101608.16;;;2.61;100.00
29569;BME280;16501;51.462;14.346;2024-01-30T03:14:14;101597.00;;;2.50;100.00
29569;BME280;16501;51.462;14.346;2024-01-30T03:16:39;101623.22;;;2.60;100.00
29569;BME280;16501;51.462;14.346;2024-01-30T03:19:08;101624.00;;;2.64;100.00
29569;BME280;16501;51.462;14.346;2024-01-30T03:21:34;101638.31;;;2.73;100.00
29569;BME280;16501;51.462;14.346;2024-01-30T03:23:59;101626.81;;;2.71;100.00
29569;BME280;16501;51.462;14.346;2024-01-30T03:26:24;101622.00;;;2.61;100.00
29569;BME280;16501;51.462;14.346;2024-01-30T03:28:50;101621.25;;;2.64;100.00
29569;BME280;16501;51.462;14.346;2024-01-30T03:31:15;101624.78;;;2.61;100.00
29569;BME280;16501;51.462;14.346;2024-01-30T03:33:41;101617.69;;;2.63;100.00
29569;BME280;16501;51.462;14.346;2024-01-30T03:36:07;101605.69;;;2.49;100.00
29569;BME280;16501;51.462;14.346;2024-01-30T03:38:33;101627.53;;;2.61;100.00
29569;BME280;16501;51.462;14.346;2024-01-30T03:40:59;101623.56;;;2.55;100.00
29569;BME280;16501;51.462;14.346;2024-01-30T03:43:24;101618.75;;;2.48;100.00
29569;BME280;16501;51.462;14.346;2024-01-30T03:45:49;101632.69;;;2.59;100.00
29569;BME280;16501;51.462;14.346;2024-01-30T03:48:15;101615.22;;;2.48;100.00
29569;BME280;16501;51.462;14.346;2024-01-30T03:50:40;101596.94;;;2.39;100.00
29569;BME280;16501;51.462;14.346;2024-01-30T03:53:05;101596.91;;;2.36;100.00
29569;BME280;16501;51.462;14.346;2024-01-30T03:55:30;101614.38;;;2.43;100.00
29569;BME280;16501;51.462;14.346;2024-01-30T03:57:56;101611.94;;;2.38;100.00
29569;BME280;16501;51.462;14.346;2024-01-30T04:00:21;101621.16;;;2.53;100.00
29569;BME280;16501;51.462;14.346;2024-01-30T04:02:46;101604.84;;;2.37;100.00
29569;BME280;16501;51.462;14.346;2024-01-30T04:05:11;101600.06;;;2.34;100.00
29569;BME280;16501;51.462;14.346;2024-01-30T04:07:37;101594.50;;;2.31;100.00
29569;BME280;16501;51.462;14.346;2024-01-30T04:10:02;101606.84;;;2.40;100.00
29569;BME280;16501;51.462;14.346;2024-01-30T04:12:30;101593.28;;;2.28;100.00
29569;BME280;16501;51.462;14.346;2024-01-30T04:14:56;101601.31;;;2.40;100.00
29569;BME280;16501;51.462;14.346;2024-01-30T04:17:21;101615.22;;;2.48;100.00
29569;BME280;16501;51.462;14.346;2024-01-30T04:19:46;101595.25;;;2.28;100.00
29569;BME280;16501;51.462;14.346;2024-01-30T04:22:11;101592.06;;;2.22;100.00
29569;BME280;16501;51.462;14.346;2024-01-30T04:24:37;101592.91;;;2.30;100.00
29569;BME280;16501;51.462;14.346;2024-01-30T04:27:02;101606.41;;;2.38;100.00
29569;BME280;16501;51.462;14.346;2024-01-30T04:29:27;101610.38;;;2.37;100.00
29569;BME280;16501;51.462;14.346;2024-01-30T04:31:53;101609.66;;;2.44;100.00
29569;BME280;16501;51.462;14.346;2024-01-30T04:34:18;101585.78;;;2.29;100.00
29569;BME280;16501;51.462;14.346;2024-01-30T04:36:46;101593.44;;;2.46;100.00
29569;BME280;16501;51.462;14.346;2024-01-30T04:39:11;101594.94;;;2.36;100.00
29569;BME280;16501;51.462;14.346;2024-01-30T04:41:37;101577.41;;;2.18;100.00
29569;BME280;16501;51.462;14.346;2024-01-30T04:44:03;101629.84;;;2.52;100.00
29569;BME280;16501;51.462;14.346;2024-01-30T04:46:28;101598.47;;;2.33;100.00
29569;BME280;16501;51.462;14.346;2024-01-30T04:48:53;101609.66;;;2.48;100.00
29569;BME280;16501;51.462;14.346;2024-01-30T04:51:18;101617.59;;;2.49;100.00
29569;BME280;16501;51.462;14.346;2024-01-30T04:53:44;101582.63;;;2.26;100.00
29569;BME280;16501;51.462;14.346;2024-01-30T04:56:09;101594.81;;;2.22;100.00
29569;BME280;16501;51.462;14.346;2024-01-30T04:58:34;101603.66;;;2.38;100.00
29569;BME280;16501;51.462;14.346;2024-01-30T05:01:00;101585.78;;;2.25;100.00
29569;BME280;16501;51.462;14.346;2024-01-30T05:03:25;101579.72;;;2.12;100.00
29569;BME280;16501;51.462;14.346;2024-01-30T05:05:50;101594.81;;;2.22;100.00
29569;BME280;16501;51.462;14.346;2024-01-30T05:08:15;101589.69;;;2.20;100.00
29569;BME280;16501;51.462;14.346;2024-01-30T05:10:40;101611.13;;;2.34;100.00
29569;BME280;16501;51.462;14.346;2024-01-30T05:13:06;101592.84;;;2.22;100.00
29569;BME280;16501;51.462;14.346;2024-01-30T05:15:31;101594.53;;;2.34;100.00
29569;BME280;16501;51.462;14.346;2024-01-30T05:17:56;101584.16;;;2.24;100.00
29569;BME280;16501;51.462;14.346;2024-01-30T05:20:21;101530.19;;;1.96;100.00
29569;BME280;16501;51.462;14.346;2024-01-30T05:22:47;101584.19;;;2.28;100.00
29569;BME280;16501;51.462;14.346;2024-01-30T05:25:12;101594.88;;;2.29;100.00
29569;BME280;16501;51.462;14.346;2024-01-30T05:27:38;101595.22;;;2.24;100.00
29569;BME280;16501;51.462;14.346;2024-01-30T05:30:05;101574.59;;;2.14;100.00
29569;BME280;16501;51.462;14.346;2024-01-30T05:32:31;101558.75;;;2.07;100.00
29569;BME280;16501;51.462;14.346;2024-01-30T05:34:56;101564.28;;;2.07;100.00
29569;BME280;16501;51.462;14.346;2024-01-30T05:37:21;101586.94;;;2.24;100.00
29569;BME280;16501;51.462;14.346;2024-01-30T05:39:47;101572.22;;;2.13;100.00
29569;BME280;16501;51.462;14.346;2024-01-30T05:42:12;101591.31;;;2.29;100.00
29569;BME280;16501;51.462;14.346;2024-01-30T05:44:37;101596.47;;;2.26;100.00
29569;BME280;16501;51.462;14.346;2024-01-30T05:47:03;101571.41;;;2.12;100.00
29569;BME280;16501;51.462;14.346;2024-01-30T05:49:28;101565.88;;;2.12;100.00
29569;BME280;16501;51.462;14.346;2024-01-30T05:51:53;101576.22;;;2.19;100.00
29569;BME280;16501;51.462;14.346;2024-01-30T05:54:19;101578.56;;;2.17;100.00
29569;BME280;16501;51.462;14.346;2024-01-30T05:56:44;101574.59;;;2.14;100.00
29569;BME280;16501;51.462;14.346;2024-01-30T05:59:09;101590.09;;;2.22;100.00
29569;BME280;16501;51.462;14.346;2024-01-30T06:01:35;101586.19;;;2.27;100.00
29569;BME280;16501;51.462;14.346;2024-01-30T06:04:01;101587.75;;;2.28;100.00
29569;BME280;16501;51.462;14.346;2024-01-30T06:06:26;101585.78;;;2.29;100.00
29569;BME280;16501;51.462;14.346;2024-01-30T06:08:51;101587.75;;;2.28;100.00
29569;BME280;16501;51.462;14.346;2024-01-30T06:11:17;101583.78;;;2.25;100.00
29569;BME280;16501;51.462;14.346;2024-01-30T06:13:42;101565.06;;;2.08;100.00
29569;BME280;16501;51.462;14.346;2024-01-30T06:16:10;101578.97;;;2.19;100.00
29569;BME280;16501;51.462;14.346;2024-01-30T06:18:39;101565.88;;;2.12;100.00
29569;BME280;16501;51.462;14.346;2024-01-30T06:21:05;101591.28;;;2.21;100.00
29569;BME280;16501;51.462;14.346;2024-01-30T06:23:30;101554.72;;;2.01;100.00
29569;BME280;16501;51.462;14.346;2024-01-30T06:25:55;101589.28;;;2.22;100.00
29569;BME280;16501;51.462;14.346;2024-01-30T06:28:21;101563.94;;;2.13;100.00
29569;BME280;16501;51.462;14.346;2024-01-30T06:30:46;101542.44;;;1.95;100.00
29569;BME280;16501;51.462;14.346;2024-01-30T06:33:12;101571.88;;;2.18;100.00
29569;BME280;16501;51.462;14.346;2024-01-30T06:35:41;101539.69;;;1.95;100.00
29569;BME280;16501;51.462;14.346;2024-01-30T06:38:06;101585.72;;;2.18;100.00
29569;BME280;16501;51.462;14.346;2024-01-30T06:40:31;101566.72;;;2.16;100.00
29569;BME280;16501;51.462;14.346;2024-01-30T06:42:56;101571.94;;;2.25;100.00
29569;BME280;16501;51.462;14.346;2024-01-30T06:45:22;101556.78;;;2.12;100.00
29569;BME280;16501;51.462;14.346;2024-01-30T06:47:47;101573.09;;;2.24;100.00
29569;BME280;16501;51.462;14.346;2024-01-30T06:50:12;101543.69;;;2.05;100.00
29569;BME280;16501;51.462;14.346;2024-01-30T06:52:38;101578.22;;;2.22;100.00
29569;BME280;16501;51.462;14.346;2024-01-30T06:55:03;101579.41;;;2.24;100.00
29569;BME280;16501;51.462;14.346;2024-01-30T06:57:29;101565.91;;;2.16;100.00
29569;BME280;16501;51.462;14.346;2024-01-30T06:59:55;101590.50;;;2.28;100.00
29569;BME280;16501;51.462;14.346;2024-01-30T07:02:21;101590.47;;;2.24;100.00
29569;BME280;16501;51.462;14.346;2024-01-30T07:04:46;101590.50;;;2.28;100.00
29569;BME280;16501;51.462;14.346;2024-01-30T07:07:11;101593.06;;;2.48;100.00
29569;BME280;16501;51.462;14.346;2024-01-30T07:09:38;101564.78;;;2.24;100.00
29569;BME280;16501;51.462;14.346;2024-01-30T07:12:04;101587.41;;;2.37;100.00
29569;BME280;16501;51.462;14.346;2024-01-30T07:14:29;101541.31;;;2.07;100.00
29569;BME280;16501;51.462;14.346;2024-01-30T07:16:54;101580.25;;;2.29;100.00
29569;BME280;16501;51.462;14.346;2024-01-30T07:19:20;101586.69;;;2.43;100.00
29569;BME280;16501;51.462;14.346;2024-01-30T07:21:45;101596.22;;;2.46;100.00
29569;BME280;16501;51.462;14.346;2024-01-30T07:24:11;101550.28;;;2.41;100.00
29569;BME280;16501;51.462;14.346;2024-01-30T07:26:37;101579.75;;;2.71;100.00
29569;BME280;16501;51.462;14.346;2024-01-30T07:29:02;101596.84;;;2.80;100.00
29569;BME280;16501;51.462;14.346;2024-01-30T07:31:28;101578.94;;;2.67;100.00
29569;BME280;16501;51.462;14.346;2024-01-30T07:33:54;101596.38;;;2.71;100.00
29569;BME280;16501;51.462;14.346;2024-01-30T07:36:20;101563.88;;;2.64;100.00
29569;BME280;16501;51.462;14.346;2024-01-30T07:38:45;101584.06;;;2.65;100.00
29569;BME280;16501;51.462;14.346;2024-01-30T07:41:10;101557.09;;;2.55;100.00
29569;BME280;16501;51.462;14.346;2024-01-30T07:43:35;101590.78;;;2.64;100.00
29569;BME280;16501;51.462;14.346;2024-01-30T07:46:01;101569.00;;;2.62;100.00
29569;BME280;16501;51.462;14.346;2024-01-30T07:48:27;101598.00;;;2.79;100.00
29569;BME280;16501;51.462;14.346;2024-01-30T07:50:53;101584.13;;;2.72;100.00
29569;BME280;16501;51.462;14.346;2024-01-30T07:53:18;101592.44;;;2.72;100.00
29569;BME280;16501;51.462;14.346;2024-01-30T07:55:43;101586.19;;;2.90;100.00
29569;BME280;16501;51.462;14.346;2024-01-30T07:58:11;101591.75;;;2.93;100.00
29569;BME280;16501;51.462;14.346;2024-01-30T08:00:37;101583.84;;;2.95;100.00
29569;BME280;16501;51.462;14.346;2024-01-30T08:03:02;101581.38;;;2.79;100.00
29569;BME280;16501;51.462;14.346;2024-01-30T08:05:28;101602.09;;;3.00;100.00
29569;BME280;16501;51.462;14.346;2024-01-30T08:07:53;101584.63;;;2.96;100.00
29569;BME280;16501;51.462;14.346;2024-01-30T08:10:18;101600.53;;;3.10;100.00
29569;BME280;16501;51.462;14.346;2024-01-30T08:12:44;101597.75;;;3.10;100.00
29569;BME280;16501;51.462;14.346;2024-01-30T08:15:09;101558.47;;;2.86;100.00
29569;BME280;16501;51.462;14.346;2024-01-30T08:17:35;101589.03;;;3.08;100.00
29569;BME280;16501;51.462;14.346;2024-01-30T08:20:00;101590.69;;;3.19;100.00
29569;BME280;16501;51.462;14.346;2024-01-30T08:22:25;101580.00;;;3.18;100.00
29569;BME280;16501;51.462;14.346;2024-01-30T08:24:51;101593.09;;;3.28;100.00
29569;BME280;16501;51.462;14.346;2024-01-30T08:27:17;101580.44;;;3.31;100.00
29569;BME280;16501;51.462;14.346;2024-01-30T08:29:44;101579.63;;;3.30;100.00
29569;BME280;16501;51.462;14.346;2024-01-30T08:32:09;101584.81;;;3.39;100.00
29569;BME280;16501;51.462;14.346;2024-01-30T08:34:35;101587.22;;;3.44;99.25
29569;BME280;16501;51.462;14.346;2024-01-30T08:37:00;101584.84;;;3.46;99.82
29569;BME280;16501;51.462;14.346;2024-01-30T08:39:25;101594.38;;;3.56;97.36
29569;BME280;16501;51.462;14.346;2024-01-30T08:41:50;101581.72;;;3.62;96.65
29569;BME280;16501;51.462;14.346;2024-01-30T08:44:16;101582.53;;;3.70;96.85
29569;BME280;16501;51.462;14.346;2024-01-30T08:46:42;101566.28;;;3.65;95.52
29569;BME280;16501;51.462;14.346;2024-01-30T08:49:08;101582.16;;;3.75;95.11
29569;BME280;16501;51.462;14.346;2024-01-30T08:51:33;101569.06;;;3.83;93.45
29569;BME280;16501;51.462;14.346;2024-01-30T08:53:59;101571.47;;;3.91;93.72
29569;BME280;16501;51.462;14.346;2024-01-30T08:56:25;101577.00;;;3.84;93.62
29569;BME280;16501;51.462;14.346;2024-01-30T08:58:50;101536.97;;;3.78;94.21
29569;BME280;16501;51.462;14.346;2024-01-30T09:01:15;101550.47;;;3.94;92.43
29569;BME280;16501;51.462;14.346;2024-01-30T09:03:40;101563.94;;;4.17;91.85
29569;BME280;16501;51.462;14.346;2024-01-30T09:06:11;101568.31;;;4.29;91.66
29569;BME280;16501;51.462;14.346;2024-01-30T09:08:37;101569.47;;;4.39;90.76
29569;BME280;16501;51.462;14.346;2024-01-30T09:11:08;101552.00;;;4.45;88.61
29569;BME280;16501;51.462;14.346;2024-01-30T09:13:34;101557.16;;;4.54;87.48
29569;BME280;16501;51.462;14.346;2024-01-30T09:15:59;101558.69;;;4.77;86.49
29569;BME280;16501;51.462;14.346;2024-01-30T09:18:24;101583.63;;;5.09;84.75
29569;BME280;16501;51.462;14.346;2024-01-30T09:20:50;101569.19;;;5.39;81.74
29569;BME280;16501;51.462;14.346;2024-01-30T09:23:15;101574.78;;;6.02;79.12
29569;BME280;16501;51.462;14.346;2024-01-30T09:25:40;101563.91;;;6.19;76.12
29569;BME280;16501;51.462;14.346;2024-01-30T09:28:06;101572.44;;;6.46;75.03
29569;BME280;16501;51.462;14.346;2024-01-30T09:30:31;101571.44;;;6.67;72.87
29569;BME280;16501;51.462;14.346;2024-01-30T09:32:56;101582.09;;;7.10;70.49
29569;BME280;16501;51.462;14.346;2024-01-30T09:35:22;101583.19;;;7.20;71.01
29569;BME280;16501;51.462;14.346;2024-01-30T09:37:47;101554.75;;;6.98;70.21
29569;BME280;16501;51.462;14.346;2024-01-30T09:40:13;101597.03;;;7.27;68.37
29569;BME280;16501;51.462;14.346;2024-01-30T09:42:40;101601.94;;;7.20;68.40
29569;BME280;16501;51.462;14.346;2024-01-30T09:45:05;101613.78;;;7.27;66.45
29569;BME280;16501;51.462;14.346;2024-01-30T09:47:42;101584.56;;;7.05;66.37
29569;BME280;16501;51.462;14.346;2024-01-30T09:50:09;101566.84;;;6.84;66.81
29569;BME280;16501;51.462;14.346;2024-01-30T09:52:34;101602.28;;;6.87;65.80
29569;BME280;16501;51.462;14.346;2024-01-30T09:55:00;101609.63;;;6.70;66.98
29569;BME280;16501;51.462;14.346;2024-01-30T09:57:26;101608.47;;;6.68;68.00
29569;BME280;16501;51.462;14.346;2024-01-30T09:59:52;101602.91;;;6.64;67.19
29569;BME280;16501;51.462;14.346;2024-01-30T10:02:19;101606.28;;;6.45;67.61
29569;BME280;16501;51.462;14.346;2024-01-30T10:04:44;101594.25;;;6.55;67.24
29569;BME280;16501;51.462;14.346;2024-01-30T10:07:10;101606.94;;;6.59;68.08
29569;BME280;16501;51.462;14.346;2024-01-30T10:09:37;101588.00;;;6.40;68.99
29569;BME280;16501;51.462;14.346;2024-01-30T10:12:03;101610.97;;;6.51;68.55
29569;BME280;16501;51.462;14.346;2024-01-30T10:14:28;101582.50;;;6.33;69.76
29569;BME280;16501;51.462;14.346;2024-01-30T10:16:55;101613.41;;;6.49;70.43
29569;BME280;16501;51.462;14.346;2024-01-30T10:19:20;101573.44;;;6.21;71.08
29569;BME280;16501;51.462;14.346;2024-01-30T10:21:46;101575.84;;;6.19;72.17
29569;BME280;16501;51.462;14.346;2024-01-30T10:24:11;101588.66;;;6.10;73.25
29569;BME280;16501;51.462;14.346;2024-01-30T10:26:38;101574.44;;;5.97;73.36
29569;BME280;16501;51.462;14.346;2024-01-30T10:29:04;101562.50;;;5.93;74.03
29569;BME280;16501;51.462;14.346;2024-01-30T10:31:30;101576.41;;;6.00;73.80
29569;BME280;16501;51.462;14.346;2024-01-30T10:33:55;101547.81;;;5.89;74.81
29569;BME280;16501;51.462;14.346;2024-01-30T10:36:24;101556.81;;;6.11;74.75
29569;BME280;16501;51.462;14.346;2024-01-30T10:38:55;101557.16;;;6.16;73.50
29569;BME280;16501;51.462;14.346;2024-01-30T10:41:25;101541.38;;;6.06;73.70
29569;BME280;16501;51.462;14.346;2024-01-30T10:43:58;101553.94;;;6.21;74.34
29569;BME280;16501;51.462;14.346;2024-01-30T10:46:30;101556.72;;;6.21;74.76
29569;BME280;16501;51.462;14.346;2024-01-30T10:48:57;101551.56;;;6.20;73.79
29569;BME280;16501;51.462;14.346;2024-01-30T10:51:28;101543.34;;;6.06;73.04
29569;BME280;16501;51.462;14.346;2024-01-30T10:53:56;101555.16;;;6.20;73.75
29569;BME280;16501;51.462;14.346;2024-01-30T10:56:21;101555.47;;;6.30;71.81
29569;BME280;16501;51.462;14.346;2024-01-30T10:58:49;101526.88;;;6.26;72.47
29569;BME280;16501;51.462;14.346;2024-01-30T11:01:15;101510.91;;;6.30;72.65
29569;BME280;16501;51.462;14.346;2024-01-30T11:03:41;101561.78;;;6.75;71.81
29569;BME280;16501;51.462;14.346;2024-01-30T11:06:10;101555.84;;;6.73;70.53
29569;BME280;16501;51.462;14.346;2024-01-30T11:08:36;101526.53;;;6.58;72.04
29569;BME280;16501;51.462;14.346;2024-01-30T11:11:01;101542.16;;;6.86;71.20
29569;BME280;16501;51.462;14.346;2024-01-30T11:13:27;101538.25;;;6.80;69.52
29569;BME280;16501;51.462;14.346;2024-01-30T11:15:54;101509.13;;;6.85;69.10
29569;BME280;16501;51.462;14.346;2024-01-30T11:18:25;101528.31;;;7.10;68.46
29569;BME280;16501;51.462;14.346;2024-01-30T11:20:51;101521.72;;;7.27;67.57
29569;BME280;16501;51.462;14.346;2024-01-30T11:23:16;101528.88;;;7.55;66.41
29569;BME280;16501;51.462;14.346;2024-01-30T11:25:43;101528.47;;;7.57;66.42
29569;BME280;16501;51.462;14.346;2024-01-30T11:28:13;101539.81;;;7.73;64.84
29569;BME280;16501;51.462;14.346;2024-01-30T11:30:39;101531.16;;;7.91;65.53
29569;BME280;16501;51.462;14.346;2024-01-30T11:33:05;101528.53;;;7.81;65.17
29569;BME280;16501;51.462;14.346;2024-01-30T11:38:04;101517.19;;;7.64;64.81
29569;BME280;16501;51.462;14.346;2024-01-30T11:40:32;101515.34;;;7.58;66.74
29569;BME280;16501;51.462;14.346;2024-01-30T11:42:59;101507.75;;;7.58;66.04
29569;BME280;16501;51.462;14.346;2024-01-30T11:45:26;101520.94;;;7.81;66.60
29569;BME280;16501;51.462;14.346;2024-01-30T11:47:53;101507.22;;;7.90;65.78
29569;BME280;16501;51.462;14.346;2024-01-30T11:50:18;101493.44;;;7.80;64.71
29569;BME280;16501;51.462;14.346;2024-01-30T11:52:43;101499.03;;;7.80;64.17
29569;BME280;16501;51.462;14.346;2024-01-30T11:55:09;101499.44;;;7.78;64.41
29569;BME280;16501;51.462;14.346;2024-01-30T11:57:35;101503.19;;;7.68;63.97
29569;BME280;16501;51.462;14.346;2024-01-30T12:00:02;101503.53;;;7.73;64.35
29569;BME280;16501;51.462;14.346;2024-01-30T12:02:29;101502.03;;;7.65;63.99
29569;BME280;16501;51.462;14.346;2024-01-30T12:04:55;101509.75;;;7.58;64.40
29569;BME280;16501;51.462;14.346;2024-01-30T12:07:20;101480.88;;;7.41;63.00
29569;BME280;16501;51.462;14.346;2024-01-30T12:09:53;101492.34;;;7.46;63.57
29569;BME280;16501;51.462;14.346;2024-01-30T12:12:19;101507.78;;;7.54;64.06
29569;BME280;16501;51.462;14.346;2024-01-30T12:14:44;101490.56;;;7.32;62.71
29569;BME280;16501;51.462;14.346;2024-01-30T12:17:09;101489.69;;;7.39;64.09
29569;BME280;16501;51.462;14.346;2024-01-30T12:19:36;101494.88;;;7.37;63.28
29569;BME280;16501;51.462;14.346;2024-01-30T12:22:01;101488.78;;;7.46;62.69
29569;BME280;16501;51.462;14.346;2024-01-30T12:24:28;101481.41;;;7.32;62.51
29569;BME280;16501;51.462;14.346;2024-01-30T12:26:58;101477.50;;;7.26;62.38
29569;BME280;16501;51.462;14.346;2024-01-30T12:29:24;101466.63;;;7.35;62.31
29569;BME280;16501;51.462;14.346;2024-01-30T12:31:52;101461.06;;;7.31;64.67
29569;BME280;16501;51.462;14.346;2024-01-30T12:34:18;101455.50;;;7.31;64.71
29569;BME280;16501;51.462;14.346;2024-01-30T12:36:47;101485.63;;;7.44;64.82
29569;BME280;16501;51.462;14.346;2024-01-30T12:39:12;101480.22;;;7.29;63.96
29569;BME280;16501;51.462;14.346;2024-01-30T12:41:39;101458.03;;;7.22;66.50